Ely, MN

9:40 AM CDT on April 01, 2015 (GMT -0500)
Ely Municipal | | Change Station
CLOSE
Current Station
Airport
Location: Ely,
Elevation: 1453 ft
Nearby Weather Stations
Active Advisory: Fire Weather Watch

Elev 1453 ft 47.82 °N, 91.83 °W | Updated 7 minutes ago

Clear
Clear
39 °F
Feels Like 32 °F
N
12
Wind Variable Wind from SSE

Today
High -- | Low -- °F
--% Chance of Precip.
Yesterday
High -- | Low -- °F
Precip. -- in
6:46 AM 7:37 PM
Waxing Gibbous, 93% visible
Pressure 29.74 in
Visibility 10.0 miles
Clouds Clear
Windchill 32 °F
Dew Point 28 °F
Humidity 65%
Rainfall 0.00 in
Snow Depth Not available.
UV 2 out of 12
Pollen 2.50 out of 12
Air Quality Not available.
Flu Activity Not available.
METAR KELO 011433Z AUTO 15010KT 10SM CLR 04/M02 A2974 RMK AO2

More Conditions Fewer Conditions

Pressure 29.74 in
Visibility 10.0 miles
Clouds Clear
Windchill 32 °F
Dew Point 28 °F
Humidity 65%
Rainfall 0.00 in
Snow Depth Not available.
UV 2 out of 12
Pollen 2.50 out of 12
Air Quality Not available.
Flu Activity Not available.
METAR KELO 011433Z AUTO 15010KT 10SM CLR 04/M02 A2974 RMK AO2

More Conditions Fewer Conditions

10-Day Weather Forecast

Almanac

Astronomy

Apr. 01, 2015 Rise Set
Actual Time
Civil Twilight
Nautical Twilight
Astronomical Twilight
Moon
Length of Visible Light
Length of Day
Tomorrow will be .
, % of the Moon is Illuminated

Today's Extremes

State Highs State Lows

Community

WunderPhotos

Upload Photos

1,809,963 photos uploaded!

WunderBlogs® & News

Nearby

Air Quality

  Air Quality AQ Index Pollutant
Not available.

Snow Depth

Station Depth Elevation

Earthquake Activity

City Distance Mag. Time & Date
Minimum magnitude displayed is 2.5.

Coastal Water Temperatures

Place Temperature

Stations

Nearby Weather Stations

Station Location Temp. Windchill Dew Point Humidity Wind Precip. Elev Updated Type
                   
Fire Weather Watch
Statement as of 4:06 AM CDT on April 01, 2015

... Fire Weather Watch in effect from Thursday morning through
Thursday evening for low relative humidity and gusty winds for
northern Minnesota...

The National Weather Service in Duluth has issued a Fire Weather
Watch for low relative humidity and gusty winds... which is in
effect from Thursday morning through Thursday evening.

* Affected area... in Minnesota... fire weather zones 011... 012...
018... 019... 020... 021... 025... 026... 033... 034... 035... 036...
037 and 038.

* Winds... southwest 15 to 25 mph with gusts up to 40
mph... switching to the west in the afternoon.

* Relative humidity... 20 to 30 percent.

* Temperatures... 55 to 60.

* Impacts... for information on burn restrictions... visit the
Minnesota department of natural resources at
www.Dnr.State.MN.US/forestry

Precautionary/preparedness actions...

A Fire Weather Watch means that critical fire weather conditions
are forecast to occur. Listen for later forecasts and possible
red flag warnings.